Crown Topaz — 3FAS9 — position and weather

sailwx.info

Track history (hours):
 
Tides and Currents Weather Stations Pressure Air Temp Water Temp Dewpoint Dewpoint Depression Visibility Wind Speed Wind Dir Waves Ship Positions

Crown Topaz

Last reported at 2016-May-27 13:30 UTC. Time now 2016-May-30 20:18 UTC.
Position N 17°04' W 063°27'.

Length 152 m; draft 6 m.

Type: Cargo ship. MMSI: 357144000.

Date/timePositionNaut miles runAvg speedWind from/ knotsBaromVisibWave heightAir tempDewpointWater temp
2016-May-27 13:30N 17°04' W 063°27'3717.2
2016-May-27 11:20N 17°35' W 063°05'5218.6
2016-May-27 08:34N 17°55' W 062°15'  
2016-May-22 09:15N 34°25' W 025°24'1718.0
2016-May-22 08:19N 34°33' W 025°06'1417.8
2016-May-22 07:33N 34°39' W 024°51'1918.1
2016-May-22 06:31N 34°48' W 024°31'1818.1
2016-May-22 05:30N 34°56' W 024°10'1817.8
2016-May-22 04:31N 35°07' W 023°54'1918.7
2016-May-22 03:31N 35°22' W 023°40'1918.8
2016-May-22 02:32N 35°37' W 023°27'1919.0
2016-May-22 01:31N 35°52' W 023°12'1818.6
2016-May-22 00:33N 36°06' W 022°59'2118.8
2016-May-21 23:26N 36°23' W 022°43'2319.0
2016-May-21 22:14N 36°42' W 022°26'  
2016-May-19 10:17N 49°27' W 004°37'1418.8
2016-May-19 09:33N 49°33' W 004°18'1918.9
2016-May-19 08:34N 49°41' W 003°52'1818.2
2016-May-19 07:34N 49°49' W 003°27'1716.9
2016-May-19 06:34N 49°57' W 003°04'1616.2
2016-May-19 05:34N 50°02' W 002°40'7218.0
2016-May-19 01:33N 50°21' W 000°51'2020.1
2016-May-19 00:32N 50°27' W 000°20'1819.1
2016-May-18 23:34N 50°33' E 000°08'1918.8
2016-May-18 22:31N 50°39' E 000°37'1818.1
2016-May-18 21:32N 50°49' E 001°00'1717.3
2016-May-18 20:34N 51°00' E 001°20'1818.3
2016-May-18 19:34N 51°12' E 001°42'1818.1
2016-May-18 18:34N 51°24' E 002°04'1917.9
2016-May-18 17:31N 51°23' E 002°34'1414.1
2016-May-18 16:33N 51°23' E 002°56'1616.4
2016-May-18 15:33N 51°24' E 003°22'1312.9
2016-May-18 14:33N 51°24' E 003°43'1110.8
2016-May-18 13:33N 51°26' E 003°60'10 9.5
2016-May-18 12:33N 51°22' E 004°13'7 7.0
2016-May-18 11:34N 51°17' E 004°20'1 1.0
2016-May-18 10:33N 51°16' E 004°21'1 1.0
2016-May-18 09:32N 51°16' E 004°23'0 0.0
2016-May-18 08:32N 51°16' E 004°23'0 0.0
2016-May-18 07:32N 51°16' E 004°23'0 0.0
2016-May-18 06:32N 51°16' E 004°23'0 0.0
2016-May-18 05:32N 51°16' E 004°23'0 0.0
2016-May-18 04:32N 51°16' E 004°23'0 0.0
2016-May-18 03:32N 51°16' E 004°23'0 0.0
2016-May-18 02:32N 51°16' E 004°23'0 0.0
2016-May-18 01:32N 51°16' E 004°23'0 0.0
2016-May-18 00:29N 51°16' E 004°23'0 0.0
2016-May-17 23:32N 51°16' E 004°23'0 0.0
2016-May-17 22:29N 51°16' E 004°23'0 0.0
2016-May-17 21:32N 51°16' E 004°23'0 0.0
2016-May-17 20:32N 51°16' E 004°23'0 0.0
2016-May-17 19:29N 51°16' E 004°23'0 0.0
2016-May-17 18:32N 51°16' E 004°23'0 0.0
2016-May-17 17:32N 51°16' E 004°23'0 0.0
2016-May-17 16:32N 51°16' E 004°23'0 0.0
2016-May-17 15:32N 51°16' E 004°23'0 0.0
2016-May-17 14:32N 51°16' E 004°23'  
Track history (hours):
 
Tides and Currents Weather Stations Pressure Air Temp Water Temp Dewpoint Dewpoint Depression Visibility Wind Speed Wind Dir Waves Ship Positions

Crown Topaz

Last reported at 2016-May-27 13:30 UTC. Time now 2016-May-30 20:19 UTC.
Position N 17°04' W 063°27'.

Length 152 m; draft 6 m.

Type: Cargo ship. MMSI: 357144000.

Date/timePositionNaut miles runAvg speedWind from/ knotsBaromVisibWave heightAir tempDewpointWater temp
2016-May-27 13:30N 17°04' W 063°27'3717.2
2016-May-27 11:20N 17°35' W 063°05'5218.6
2016-May-27 08:34N 17°55' W 062°15'  
2016-May-22 09:15N 34°25' W 025°24'1718.0
2016-May-22 08:19N 34°33' W 025°06'1417.8
2016-May-22 07:33N 34°39' W 024°51'1918.1
2016-May-22 06:31N 34°48' W 024°31'1818.1
2016-May-22 05:30N 34°56' W 024°10'1817.8
2016-May-22 04:31N 35°07' W 023°54'1918.7
2016-May-22 03:31N 35°22' W 023°40'1918.8
2016-May-22 02:32N 35°37' W 023°27'1919.0
2016-May-22 01:31N 35°52' W 023°12'1818.6
2016-May-22 00:33N 36°06' W 022°59'2118.8
2016-May-21 23:26N 36°23' W 022°43'2319.0
2016-May-21 22:14N 36°42' W 022°26'  
2016-May-19 10:17N 49°27' W 004°37'1418.8
2016-May-19 09:33N 49°33' W 004°18'1918.9
2016-May-19 08:34N 49°41' W 003°52'1818.2
2016-May-19 07:34N 49°49' W 003°27'1716.9
2016-May-19 06:34N 49°57' W 003°04'1616.2
2016-May-19 05:34N 50°02' W 002°40'7218.0
2016-May-19 01:33N 50°21' W 000°51'2020.1
2016-May-19 00:32N 50°27' W 000°20'1819.1
2016-May-18 23:34N 50°33' E 000°08'1918.8
2016-May-18 22:31N 50°39' E 000°37'1818.1
2016-May-18 21:32N 50°49' E 001°00'1717.3
2016-May-18 20:34N 51°00' E 001°20'1818.3
2016-May-18 19:34N 51°12' E 001°42'1818.1
2016-May-18 18:34N 51°24' E 002°04'1917.9
2016-May-18 17:31N 51°23' E 002°34'1414.1
2016-May-18 16:33N 51°23' E 002°56'1616.4
2016-May-18 15:33N 51°24' E 003°22'1312.9
2016-May-18 14:33N 51°24' E 003°43'1110.8
2016-May-18 13:33N 51°26' E 003°60'10 9.5
2016-May-18 12:33N 51°22' E 004°13'7 7.0
2016-May-18 11:34N 51°17' E 004°20'1 1.0
2016-May-18 10:33N 51°16' E 004°21'1 1.0
2016-May-18 09:32N 51°16' E 004°23'0 0.0
2016-May-18 08:32N 51°16' E 004°23'0 0.0
2016-May-18 07:32N 51°16' E 004°23'0 0.0
2016-May-18 06:32N 51°16' E 004°23'0 0.0
2016-May-18 05:32N 51°16' E 004°23'0 0.0
2016-May-18 04:32N 51°16' E 004°23'0 0.0
2016-May-18 03:32N 51°16' E 004°23'0 0.0
2016-May-18 02:32N 51°16' E 004°23'0 0.0
2016-May-18 01:32N 51°16' E 004°23'0 0.0
2016-May-18 00:29N 51°16' E 004°23'0 0.0
2016-May-17 23:32N 51°16' E 004°23'0 0.0
2016-May-17 22:29N 51°16' E 004°23'0 0.0
2016-May-17 21:32N 51°16' E 004°23'0 0.0
2016-May-17 20:32N 51°16' E 004°23'0 0.0
2016-May-17 19:29N 51°16' E 004°23'0 0.0
2016-May-17 18:32N 51°16' E 004°23'0 0.0
2016-May-17 17:32N 51°16' E 004°23'0 0.0
2016-May-17 16:32N 51°16' E 004°23'0 0.0
2016-May-17 15:32N 51°16' E 004°23'0 0.0
2016-May-17 14:32N 51°16' E 004°23'  

Dump ship's entire track history